Terminal Aerodrome Forecast
Issued by NWS

Current Version | Previous Version | Text Only | Print | Product List | Glossary On
Versions: 1 2 3 4 5 6 7 8 9 10 11 12 13
000
FTUS45 KGJT 271144 AAA
TAFVEL
TAF AMD
KVEL 271144Z 2712/2812 00000KT P6SM VCSH OVC080
     FM271600 24009KT P6SM VCSH SCT050 BKN080
     FM272200 25010G20KT P6SM VCSH OVC050
     FM280300 VRB03KT P6SM VCSH SCT040 BKN070
     FM280600 32008KT P6SM VCSH SCT040 BKN070=

USA.gov is the U.S. government's official web portal to all federal, state and local government web resources and services.